Time;durP1;ratioP1;P1;durP2;ratioP2;P2;SDS_P1;SDS_P2;PMS_P1;PMS_P2;Temp;Humidity;BMP_temperature;BMP_pressure;BME280_temperature;BME280_humidity;BME280_pressure;Samples;Min_cycle;Max_cycle;Signal;HPM_P1;HPM_P2
2022/10/24 00:00:12;;;;;;;6.25;2.38;;;17.20;99.90;;;;;;5017282;28;20196;-72
2022/10/24 00:02:40;;;;;;;6.65;2.22;;;17.10;99.90;;;;;;5017002;28;20195;-71
2022/10/24 00:05:06;;;;;;;4.75;2.25;;;17.20;99.90;;;;;;5029803;28;20244;-73
2022/10/24 00:07:32;;;;;;;5.72;2.63;;;17.20;99.90;;;;;;5040222;28;20174;-73
2022/10/24 00:10:00;;;;;;;4.93;2.08;;;17.20;99.90;;;;;;5017206;28;20198;-72
2022/10/24 00:12:25;;;;;;;4.43;2.33;;;17.20;99.90;;;;;;5017685;28;20179;-72
2022/10/24 00:14:51;;;;;;;5.95;2.50;;;17.20;99.90;;;;;;5017089;28;20237;-72
2022/10/24 00:17:21;;;;;;;7.30;2.38;;;17.20;99.90;;;;;;5016941;28;20185;-72
2022/10/24 00:19:52;;;;;;;4.10;2.50;;;17.20;99.90;;;;;;5017395;28;20179;-73
2022/10/24 00:22:20;;;;;;;4.80;2.25;;;17.30;99.90;;;;;;5018200;28;20163;-72
2022/10/24 00:24:46;;;;;;;7.20;2.50;;;17.30;99.90;;;;;;5017332;28;20178;-72
2022/10/24 00:27:12;;;;;;;4.85;2.60;;;17.30;99.90;;;;;;5016940;28;20294;-73
2022/10/24 00:29:37;;;;;;;3.60;2.05;;;17.30;99.90;;;;;;5016957;28;20186;-73
2022/10/24 00:32:03;;;;;;;5.70;2.70;;;17.30;99.90;;;;;;5020770;28;20190;-72
2022/10/24 00:34:29;;;;;;;8.48;2.10;;;17.30;99.90;;;;;;5016147;28;20210;-73
2022/10/24 00:36:55;;;;;;;6.38;2.53;;;17.30;99.90;;;;;;5017210;28;20177;-73
2022/10/24 00:39:25;;;;;;;4.95;2.28;;;17.30;99.90;;;;;;5016336;28;20285;-71
2022/10/24 00:41:53;;;;;;;4.03;2.40;;;17.30;99.90;;;;;;5016939;28;20170;-72
2022/10/24 00:44:26;;;;;;;5.70;2.60;;;17.40;99.90;;;;;;5017012;28;20188;-73
2022/10/24 00:46:57;;;;;;;3.92;2.40;;;17.40;99.90;;;;;;5033076;28;20190;-72
2022/10/24 00:49:59;;;;;;;5.40;2.80;;;17.40;99.90;;;;;;5015615;28;20206;-73
2022/10/24 00:52:29;;;;;;;7.07;3.00;;;17.40;99.90;;;;;;5030431;28;20194;-72
2022/10/24 00:54:56;;;;;;;6.47;2.60;;;17.40;99.90;;;;;;5031623;28;20213;-72
2022/10/24 00:57:34;;;;;;;7.20;2.65;;;17.40;99.90;;;;;;5013360;28;20186;-71
2022/10/24 01:00:16;;;;;;;4.57;2.35;;;17.40;99.90;;;;;;4997295;28;20195;-71
2022/10/24 01:02:42;;;;;;;5.97;2.80;;;17.40;99.90;;;;;;5015621;28;20183;-71
2022/10/24 01:05:14;;;;;;;5.00;3.00;;;17.40;99.90;;;;;;5016434;28;20241;-73
2022/10/24 01:08:00;;;;;;;5.05;2.55;;;17.40;99.90;;;;;;5016076;28;20186;-74
2022/10/24 01:10:37;;;;;;;5.72;2.60;;;17.40;99.90;;;;;;5020553;28;20175;-72
2022/10/24 01:13:36;;;;;;;5.75;2.65;;;17.40;99.90;;;;;;5032710;28;20190;-73
2022/10/24 01:16:16;;;;;;;6.72;2.45;;;17.50;99.90;;;;;;5022326;28;20183;-73
2022/10/24 01:18:52;;;;;;;6.50;2.85;;;17.40;99.90;;;;;;5014883;28;20198;-71
2022/10/24 01:21:27;;;;;;;5.88;2.42;;;17.50;99.90;;;;;;5032069;28;20175;-72
2022/10/24 01:24:31;;;;;;;7.65;2.50;;;17.50;99.90;;;;;;5024090;28;20252;-73
2022/10/24 01:27:03;;;;;;;4.53;2.17;;;17.40;99.90;;;;;;5025193;28;20201;-72
2022/10/24 01:29:50;;;;;;;5.88;2.55;;;17.50;99.90;;;;;;5011826;28;20183;-73
2022/10/24 01:32:28;;;;;;;5.05;2.25;;;17.40;99.90;;;;;;5031345;28;20202;-73
2022/10/24 01:35:05;;;;;;;7.65;2.33;;;17.40;99.90;;;;;;5017622;28;20195;-72
2022/10/24 01:37:44;;;;;;;4.05;2.20;;;17.50;99.90;;;;;;5024118;28;20179;-73
2022/10/24 01:40:44;;;;;;;3.30;2.03;;;17.40;99.90;;;;;;5022770;28;20198;-72
2022/10/24 01:43:13;;;;;;;6.00;2.47;;;17.50;99.90;;;;;;5005944;28;20240;-72
2022/10/24 01:45:42;;;;;;;5.80;2.60;;;17.40;99.90;;;;;;5022444;28;20191;-73
2022/10/24 01:48:14;;;;;;;5.18;2.40;;;17.40;99.90;;;;;;5015230;28;20179;-74
2022/10/24 01:50:42;;;;;;;5.72;2.05;;;17.40;99.90;;;;;;5015719;28;20181;-72
2022/10/24 01:53:12;;;;;;;5.00;2.38;;;17.40;99.90;;;;;;5015289;28;20209;-72
2022/10/24 01:55:39;;;;;;;5.55;2.60;;;17.40;99.90;;;;;;5031964;28;20198;-74
2022/10/24 01:58:08;;;;;;;4.53;2.28;;;17.40;99.90;;;;;;5015319;28;20210;-73
2022/10/24 02:00:34;;;;;;;5.20;2.55;;;17.40;99.90;;;;;;5015707;28;20225;-73
2022/10/24 02:03:22;;;;;;;6.28;2.53;;;17.40;99.90;;;;;;5013233;28;20171;-70
2022/10/24 02:05:54;;;;;;;9.60;2.70;;;17.40;99.90;;;;;;5015485;28;20225;-73
2022/10/24 02:08:26;;;;;;;6.22;2.30;;;17.40;99.90;;;;;;5015211;28;20185;-72
2022/10/24 02:10:56;;;;;;;5.88;2.85;;;17.30;99.90;;;;;;5015555;28;20301;-73
2022/10/24 02:13:41;;;;;;;5.13;2.60;;;17.40;99.90;;;;;;5031937;28;20175;-72
2022/10/24 02:16:08;;;;;;;6.43;2.60;;;17.30;99.90;;;;;;5031818;28;20203;-73
2022/10/24 02:18:34;;;;;;;5.30;2.65;;;17.40;99.90;;;;;;5015554;28;20182;-72
2022/10/24 02:21:16;;;;;;;3.72;2.50;;;17.40;99.90;;;;;;5014802;28;20236;-72
2022/10/24 02:24:20;;;;;;;4.43;2.45;;;17.40;99.90;;;;;;5015426;28;20201;-72
2022/10/24 02:26:54;;;;;;;7.15;2.60;;;17.40;99.90;;;;;;4990415;28;20197;-72
2022/10/24 02:29:40;;;;;;;6.40;2.65;;;17.40;99.90;;;;;;5019356;28;20193;-73
2022/10/24 02:32:10;;;;;;;4.47;2.42;;;17.40;99.90;;;;;;5013958;28;20195;-72
2022/10/24 02:34:38;;;;;;;8.30;2.92;;;17.40;99.90;;;;;;5014732;28;20281;-72
2022/10/24 02:37:08;;;;;;;6.65;2.67;;;17.50;99.90;;;;;;5015538;28;20179;-73
2022/10/24 02:39:38;;;;;;;6.18;2.50;;;17.50;99.90;;;;;;5014739;28;20189;-73
2022/10/24 02:42:05;;;;;;;5.50;2.45;;;17.50;99.90;;;;;;5031385;28;20270;-71
2022/10/24 02:44:35;;;;;;;6.47;2.45;;;17.60;99.90;;;;;;5031441;28;20178;-73
2022/10/24 02:47:05;;;;;;;5.38;2.38;;;17.50;99.90;;;;;;5031222;28;20190;-73
2022/10/24 02:49:33;;;;;;;6.65;2.92;;;17.50;99.90;;;;;;5014712;28;20480;-73
2022/10/24 02:52:02;;;;;;;6.65;2.47;;;17.60;99.90;;;;;;5014419;28;20183;-73
2022/10/24 02:54:28;;;;;;;5.40;2.40;;;17.60;99.90;;;;;;5014217;28;20218;-73
2022/10/24 02:56:58;;;;;;;4.15;2.00;;;17.60;99.90;;;;;;5031457;28;20182;-73
2022/10/24 02:59:26;;;;;;;5.78;2.42;;;17.60;99.90;;;;;;5030804;28;20182;-72
2022/10/24 03:01:52;;;;;;;6.43;2.40;;;17.60;99.90;;;;;;5014359;28;20170;-73
2022/10/24 03:04:22;;;;;;;8.32;2.92;;;17.60;99.90;;;;;;5039635;28;20184;-73
2022/10/24 03:06:48;;;;;;;5.55;2.28;;;17.60;99.90;;;;;;5032890;28;20203;-71
2022/10/24 03:09:14;;;;;;;5.03;2.35;;;17.60;99.90;;;;;;5011388;28;20215;-72
2022/10/24 03:11:42;;;;;;;5.93;2.47;;;17.70;99.90;;;;;;5011438;28;20172;-73
2022/10/24 03:14:07;;;;;;;7.25;2.58;;;17.60;99.90;;;;;;5016839;28;20202;-73
2022/10/24 03:16:33;;;;;;;4.25;2.28;;;17.70;99.90;;;;;;5018312;28;20229;-73
2022/10/24 03:18:59;;;;;;;6.20;2.47;;;17.70;99.90;;;;;;5018302;28;20195;-72
2022/10/24 03:21:26;;;;;;;5.03;2.42;;;17.60;99.90;;;;;;5030007;28;20197;-73
2022/10/24 03:23:55;;;;;;;4.80;2.10;;;17.60;99.90;;;;;;5036350;28;20238;-72
2022/10/24 03:26:23;;;;;;;5.95;2.20;;;17.60;99.90;;;;;;5025886;28;20252;-73
2022/10/24 03:28:53;;;;;;;3.97;2.03;;;17.60;99.90;;;;;;5032141;28;20214;-73
2022/10/24 03:31:19;;;;;;;7.35;2.25;;;17.60;99.90;;;;;;5019276;28;20190;-73
2022/10/24 03:33:49;;;;;;;4.97;2.38;;;17.60;99.90;;;;;;5033835;28;20185;-73
2022/10/24 03:36:15;;;;;;;5.43;2.45;;;17.50;99.90;;;;;;5012366;28;20175;-73
2022/10/24 03:38:45;;;;;;;6.18;2.47;;;17.50;99.90;;;;;;5015739;28;20179;-73
2022/10/24 03:41:11;;;;;;;5.00;2.45;;;17.50;99.90;;;;;;5018162;28;20228;-73
2022/10/24 03:43:39;;;;;;;4.38;2.40;;;17.50;99.90;;;;;;5034352;28;20170;-73
2022/10/24 03:46:05;;;;;;;3.47;2.20;;;17.50;99.90;;;;;;5034058;28;20243;-73
2022/10/24 03:48:30;;;;;;;7.75;2.55;;;17.40;99.90;;;;;;5014989;28;20253;-73
2022/10/24 03:50:58;;;;;;;5.57;2.40;;;17.40;99.90;;;;;;5016980;28;20194;-73
2022/10/24 03:53:24;;;;;;;8.05;2.35;;;17.40;99.90;;;;;;5033859;28;20175;-72
2022/10/24 03:55:52;;;;;;;3.78;2.25;;;17.40;99.90;;;;;;5017059;28;20229;-72
2022/10/24 03:58:18;;;;;;;3.60;2.17;;;17.40;99.90;;;;;;5018136;28;20215;-75
2022/10/24 04:00:43;;;;;;;3.60;1.90;;;17.40;99.90;;;;;;5017489;28;20171;-73
2022/10/24 04:03:09;;;;;;;4.78;1.98;;;17.30;99.90;;;;;;5017782;28;20205;-74
2022/10/24 04:05:36;;;;;;;4.28;2.03;;;17.30;99.90;;;;;;5017603;28;20189;-74
2022/10/24 04:08:02;;;;;;;4.45;2.42;;;17.30;99.90;;;;;;5017631;28;20180;-75
2022/10/24 04:10:28;;;;;;;3.78;2.20;;;17.20;99.90;;;;;;5022580;28;20185;-72
2022/10/24 04:12:53;;;;;;;4.70;2.20;;;17.20;99.90;;;;;;5041380;28;20211;-72
2022/10/24 04:15:21;;;;;;;5.10;1.90;;;17.20;99.90;;;;;;5017194;28;20233;-72
2022/10/24 04:17:49;;;;;;;7.35;2.13;;;17.20;99.90;;;;;;5017325;28;20270;-74
2022/10/24 04:20:18;;;;;;;3.75;2.30;;;17.20;99.90;;;;;;5013921;28;20175;-72
2022/10/24 04:22:46;;;;;;;3.55;1.90;;;17.10;99.90;;;;;;5014431;28;20176;-73
2022/10/24 04:25:12;;;;;;;4.72;2.03;;;17.10;99.90;;;;;;5016786;28;20182;-72
2022/10/24 04:27:39;;;;;;;3.35;2.10;;;17.10;99.90;;;;;;5017068;28;20175;-74
2022/10/24 04:30:10;;;;;;;3.85;2.15;;;17.10;99.90;;;;;;5016800;28;20217;-73
2022/10/24 04:32:35;;;;;;;6.32;2.10;;;17.10;99.90;;;;;;5016570;28;20210;-73
2022/10/24 04:35:02;;;;;;;5.32;2.22;;;17.10;99.90;;;;;;5025084;28;20245;-74
2022/10/24 04:37:30;;;;;;;5.45;1.83;;;17.00;99.90;;;;;;5016666;28;20166;-74
2022/10/24 04:39:58;;;;;;;2.88;1.88;;;17.10;99.90;;;;;;5016794;28;20229;-73
2022/10/24 04:42:24;;;;;;;4.55;2.03;;;17.00;99.90;;;;;;5017086;28;20187;-73
2022/10/24 04:44:50;;;;;;;6.55;2.60;;;17.00;99.90;;;;;;5013308;28;20183;-74
2022/10/24 04:47:16;;;;;;;3.88;2.33;;;17.00;99.90;;;;;;5016273;28;20240;-74
2022/10/24 04:49:45;;;;;;;2.80;2.10;;;17.10;99.90;;;;;;5016641;28;20189;-73
2022/10/24 04:52:13;;;;;;;4.53;2.50;;;17.00;99.90;;;;;;5002647;28;20219;-73
2022/10/24 04:54:41;;;;;;;3.38;2.28;;;17.00;99.90;;;;;;5016464;28;20210;-73
2022/10/24 04:57:09;;;;;;;4.35;2.17;;;17.00;99.90;;;;;;5016607;28;20199;-75
2022/10/24 04:59:34;;;;;;;3.83;2.00;;;16.90;99.90;;;;;;5013868;28;20254;-74
2022/10/24 05:02:00;;;;;;;3.50;1.90;;;17.00;99.90;;;;;;5016088;28;20233;-72
2022/10/24 05:04:28;;;;;;;3.83;1.98;;;16.90;99.90;;;;;;5032637;28;20186;-73
2022/10/24 05:06:53;;;;;;;3.50;1.65;;;16.90;99.90;;;;;;5032580;28;20178;-74
2022/10/24 05:09:19;;;;;;;5.05;1.90;;;16.90;99.90;;;;;;5015749;28;20229;-73
2022/10/24 05:11:45;;;;;;;3.30;1.85;;;16.90;99.90;;;;;;5032588;28;20186;-73
2022/10/24 05:14:15;;;;;;;3.92;1.63;;;16.90;99.90;;;;;;5016013;28;20212;-73
2022/10/24 05:16:42;;;;;;;4.82;1.95;;;16.90;99.90;;;;;;5013010;28;20261;-73
2022/10/24 05:19:10;;;;;;;4.80;1.45;;;16.90;99.90;;;;;;5014045;28;20486;-73
2022/10/24 05:21:36;;;;;;;4.85;2.08;;;16.90;99.90;;;;;;5015978;28;20181;-73
2022/10/24 05:24:04;;;;;;;3.67;1.92;;;16.90;99.90;;;;;;5016002;28;20198;-73
2022/10/24 05:26:29;;;;;;;3.78;1.67;;;16.90;99.90;;;;;;5016381;28;20174;-72
2022/10/24 05:28:55;;;;;;;6.20;1.80;;;16.90;99.90;;;;;;5015722;28;20233;-74
2022/10/24 05:31:23;;;;;;;4.90;1.90;;;16.90;99.90;;;;;;5014930;28;20240;-72
2022/10/24 05:33:48;;;;;;;4.05;2.05;;;16.90;99.90;;;;;;5027644;28;20181;-73
2022/10/24 05:36:14;;;;;;;4.57;1.73;;;16.90;99.90;;;;;;5016979;28;20174;-73
2022/10/24 05:38:39;;;;;;;2.95;1.85;;;17.00;99.90;;;;;;5015488;28;20171;-73
2022/10/24 05:41:05;;;;;;;2.83;1.50;;;17.00;99.90;;;;;;5014724;28;20202;-73
2022/10/24 05:43:33;;;;;;;3.53;1.70;;;17.00;99.90;;;;;;5015647;28;20183;-73
2022/10/24 05:45:59;;;;;;;2.35;1.50;;;17.00;99.90;;;;;;5014950;28;20285;-73
2022/10/24 05:48:25;;;;;;;3.28;1.80;;;17.10;99.90;;;;;;5015257;28;20213;-74
2022/10/24 05:50:56;;;;;;;4.80;1.45;;;17.10;99.90;;;;;;5015271;28;20178;-73
2022/10/24 05:53:22;;;;;;;4.50;1.70;;;17.10;99.90;;;;;;5011884;28;20195;-74
2022/10/24 05:55:47;;;;;;;3.70;1.67;;;17.20;99.90;;;;;;5005486;28;20253;-73
2022/10/24 05:58:19;;;;;;;2.70;1.50;;;17.20;99.90;;;;;;5014843;28;20182;-73
2022/10/24 06:00:46;;;;;;;5.00;1.83;;;17.20;99.90;;;;;;5014703;28;20175;-73
2022/10/24 06:03:12;;;;;;;2.90;1.52;;;17.20;99.90;;;;;;5012658;28;20198;-72
2022/10/24 06:05:37;;;;;;;4.43;1.92;;;17.30;99.90;;;;;;5013923;28;20234;-73
2022/10/24 06:08:03;;;;;;;2.60;1.70;;;17.30;99.90;;;;;;5013893;28;20182;-73
2022/10/24 06:10:28;;;;;;;3.72;1.75;;;17.30;99.90;;;;;;5030778;28;20182;-73
2022/10/24 06:12:54;;;;;;;2.80;1.73;;;17.30;99.90;;;;;;5014202;28;20213;-74
2022/10/24 06:15:20;;;;;;;5.22;1.77;;;17.40;99.90;;;;;;5029749;28;20198;-73
2022/10/24 06:17:48;;;;;;;8.07;1.90;;;17.40;99.90;;;;;;5015028;28;20182;-73
2022/10/24 06:20:13;;;;;;;4.28;1.85;;;17.40;99.90;;;;;;5011852;28;20182;-74
2022/10/24 06:22:44;;;;;;;7.10;1.92;;;17.40;99.90;;;;;;5011339;28;20171;-73
2022/10/24 06:25:10;;;;;;;3.15;1.80;;;17.40;99.90;;;;;;5010929;28;20199;-73
2022/10/24 06:27:36;;;;;;;3.85;1.70;;;17.50;99.90;;;;;;5014543;28;20182;-73
2022/10/24 06:30:05;;;;;;;3.03;1.45;;;17.50;99.90;;;;;;5021111;28;20174;-73
2022/10/24 06:32:31;;;;;;;4.22;1.58;;;17.50;99.90;;;;;;5015767;28;20186;-73
2022/10/24 06:34:56;;;;;;;3.67;1.80;;;17.60;99.90;;;;;;5014704;28;20202;-73
2022/10/24 06:37:24;;;;;;;3.53;1.70;;;17.50;99.90;;;;;;5014397;28;20229;-74
2022/10/24 06:39:50;;;;;;;3.72;1.70;;;17.60;99.90;;;;;;5014935;28;20175;-74
2022/10/24 06:42:17;;;;;;;4.65;1.70;;;17.60;99.90;;;;;;5014397;28;20201;-72
2022/10/24 06:44:43;;;;;;;2.05;1.75;;;17.60;99.90;;;;;;5014305;28;20199;-72
2022/10/24 06:47:11;;;;;;;1.98;1.40;;;17.60;99.90;;;;;;5013787;28;20183;-72
2022/10/24 06:49:37;;;;;;;6.85;1.58;;;17.60;99.90;;;;;;5013804;28;20220;-73
2022/10/24 06:52:03;;;;;;;3.13;1.45;;;17.70;99.90;;;;;;5011227;28;20222;-73
2022/10/24 06:54:29;;;;;;;3.83;1.70;;;17.70;99.90;;;;;;5026541;28;20199;-72
2022/10/24 06:56:57;;;;;;;10.88;1.85;;;17.70;99.90;;;;;;5023734;28;20206;-72
2022/10/24 06:59:23;;;;;;;3.10;1.50;;;17.70;99.90;;;;;;5023785;28;20181;-74
2022/10/24 07:01:49;;;;;;;3.05;1.30;;;17.80;99.90;;;;;;5010097;28;20175;-73
2022/10/24 07:04:16;;;;;;;4.97;1.70;;;17.80;99.90;;;;;;5028640;28;20413;-73
2022/10/24 07:06:45;;;;;;;3.50;1.60;;;17.80;99.90;;;;;;5014361;28;20174;-72
2022/10/24 07:09:14;;;;;;;4.38;1.17;;;17.80;99.90;;;;;;5006962;28;20190;-72
2022/10/24 07:11:39;;;;;;;2.80;1.33;;;17.80;99.90;;;;;;5028828;28;20185;-73
2022/10/24 07:14:08;;;;;;;3.20;1.20;;;17.90;99.90;;;;;;5010966;28;20195;-73
2022/10/24 07:16:34;;;;;;;5.10;1.63;;;17.90;99.90;;;;;;5013259;28;20505;-72
2022/10/24 07:19:00;;;;;;;3.50;1.45;;;17.90;99.90;;;;;;5013494;28;20167;-72
2022/10/24 07:21:30;;;;;;;3.05;1.30;;;17.90;99.90;;;;;;5009995;28;20201;-72
2022/10/24 07:23:56;;;;;;;5.78;1.52;;;17.90;99.90;;;;;;5028964;28;20341;-72
2022/10/24 07:26:23;;;;;;;5.47;1.60;;;18.00;99.90;;;;;;5019766;28;20253;-72
2022/10/24 07:28:55;;;;;;;3.45;1.25;;;17.90;99.90;;;;;;5030768;28;20207;-73
2022/10/24 07:31:29;;;;;;;3.30;1.27;;;18.00;99.90;;;;;;5013298;28;20277;-72
2022/10/24 07:33:55;;;;;;;5.60;2.95;;;18.00;99.90;;;;;;5027712;28;20258;-72
2022/10/24 07:36:28;;;;;;;3.35;1.50;;;18.10;99.90;;;;;;5012610;28;20261;-73
2022/10/24 07:39:00;;;;;;;1.80;1.20;;;18.10;99.90;;;;;;5030075;28;20191;-71
2022/10/24 07:41:28;;;;;;;3.42;1.23;;;18.20;99.90;;;;;;5014285;28;20159;-72
2022/10/24 07:43:56;;;;;;;3.47;1.30;;;18.20;99.90;;;;;;5014030;28;20202;-71
2022/10/24 07:46:24;;;;;;;2.92;1.20;;;18.30;99.90;;;;;;5014088;28;20270;-71
2022/10/24 07:48:51;;;;;;;2.33;1.20;;;18.30;99.90;;;;;;5013720;28;20174;-71
2022/10/24 07:51:20;;;;;;;3.75;1.38;;;18.40;99.90;;;;;;5013712;28;20182;-73
2022/10/24 07:53:48;;;;;;;3.60;1.30;;;18.40;99.90;;;;;;5014051;28;20262;-73
2022/10/24 07:56:45;;;;;;;5.07;1.20;;;18.50;99.90;;;;;;5011402;28;20207;-72
2022/10/24 07:59:13;;;;;;;3.75;1.45;;;18.50;99.90;;;;;;5009609;28;20511;-74
2022/10/24 08:01:39;;;;;;;3.47;1.27;;;18.60;99.90;;;;;;5033616;28;20376;-74
2022/10/24 08:04:04;;;;;;;3.97;1.15;;;18.60;99.90;;;;;;5014688;28;20199;-74
2022/10/24 08:06:32;;;;;;;4.20;1.25;;;18.60;99.90;;;;;;5020411;28;20182;-74
2022/10/24 08:08:58;;;;;;;4.43;1.30;;;18.70;99.90;;;;;;5017022;28;20217;-71
2022/10/24 08:11:26;;;;;;;4.13;1.45;;;18.70;99.90;;;;;;5016149;28;20265;-73
2022/10/24 08:13:53;;;;;;;2.17;1.08;;;18.80;99.90;;;;;;5017469;28;20175;-73
2022/10/24 08:16:20;;;;;;;3.53;1.20;;;18.80;99.90;;;;;;5015931;28;20178;-73
2022/10/24 08:18:49;;;;;;;3.53;1.05;;;18.80;99.90;;;;;;5028483;28;20347;-74
2022/10/24 08:21:16;;;;;;;3.17;1.05;;;18.80;99.90;;;;;;5012165;28;20192;-72
2022/10/24 08:23:44;;;;;;;6.53;1.48;;;18.80;99.90;;;;;;5019639;28;20222;-73
2022/10/24 08:26:15;;;;;;;2.38;1.08;;;18.90;99.90;;;;;;5048340;28;20253;-72
2022/10/24 08:28:44;;;;;;;2.40;1.17;;;18.90;99.90;;;;;;5015923;28;20238;-73
2022/10/24 08:31:16;;;;;;;2.50;1.10;;;18.90;99.90;;;;;;5016191;28;20221;-75
2022/10/24 08:33:42;;;;;;;2.92;1.02;;;18.90;99.90;;;;;;5026634;28;20181;-73
2022/10/24 08:36:31;;;;;;;2.78;1.25;;;18.90;99.90;;;;;;5016461;28;20175;-74
2022/10/24 08:38:57;;;;;;;4.93;1.25;;;19.00;99.90;;;;;;5015635;28;20207;-74
2022/10/24 08:41:31;;;;;;;1.65;0.70;;;19.00;99.90;;;;;;5017243;28;20183;-73
2022/10/24 08:44:02;;;;;;;3.83;1.33;;;19.00;99.90;;;;;;5022421;28;20181;-76
2022/10/24 08:46:40;;;;;;;3.22;1.08;;;19.00;99.90;;;;;;5031720;28;20210;-73
2022/10/24 08:49:28;;;;;;;4.18;1.17;;;19.00;99.90;;;;;;5031502;28;20182;-74
2022/10/24 08:52:06;;;;;;;2.20;0.93;;;19.10;99.90;;;;;;5012368;28;20183;-75
2022/10/24 08:54:39;;;;;;;3.70;1.30;;;19.10;99.90;;;;;;5029417;28;20204;-75
2022/10/24 08:57:11;;;;;;;4.57;1.35;;;19.20;99.90;;;;;;5010265;28;20199;-76
2022/10/24 08:59:37;;;;;;;3.65;1.02;;;19.30;99.90;;;;;;5032547;28;20171;-74
2022/10/24 09:02:17;;;;;;;2.85;1.10;;;19.50;99.90;;;;;;5015874;28;20178;-74
2022/10/24 09:04:59;;;;;;;2.83;0.80;;;19.70;99.90;;;;;;5020558;28;20206;-75
2022/10/24 09:07:25;;;;;;;3.85;1.00;;;19.80;99.90;;;;;;5037291;28;20179;-76
2022/10/24 09:10:03;;;;;;;1.90;1.05;;;19.90;99.90;;;;;;5015449;28;20179;-74
2022/10/24 09:12:29;;;;;;;6.88;0.95;;;20.10;99.90;;;;;;5042317;28;20221;-74
2022/10/24 09:15:00;;;;;;;1.73;0.82;;;20.50;99.90;;;;;;5018990;28;20202;-75
2022/10/24 09:17:33;;;;;;;7.32;1.45;;;21.00;99.90;;;;;;5017285;28;20190;-75
2022/10/24 09:20:17;;;;;;;2.72;1.10;;;21.30;99.90;;;;;;5021172;28;20198;-75
2022/10/24 09:22:46;;;;;;;3.25;1.23;;;21.50;99.90;;;;;;5022315;28;20171;-76
2022/10/24 09:25:17;;;;;;;3.33;1.10;;;21.60;99.90;;;;;;5017942;28;20248;-75
2022/10/24 09:27:45;;;;;;;4.05;1.10;;;21.60;99.90;;;;;;5017687;28;20215;-76
2022/10/24 09:30:18;;;;;;;2.25;0.90;;;21.70;99.90;;;;;;5033135;28;20175;-76
2022/10/24 09:32:47;;;;;;;4.78;1.40;;;21.70;99.90;;;;;;5032412;28;20189;-75
2022/10/24 09:35:22;;;;;;;2.50;0.93;;;21.70;99.90;;;;;;5033299;28;20201;-75
2022/10/24 09:37:58;;;;;;;2.42;1.00;;;21.80;99.90;;;;;;5034502;28;20224;-75
2022/10/24 09:40:27;;;;;;;2.55;0.90;;;21.90;99.90;;;;;;5016877;28;20190;-76
2022/10/24 09:43:20;;;;;;;3.00;0.95;;;22.00;99.90;;;;;;5016173;28;20233;-75
2022/10/24 09:46:20;;;;;;;2.85;1.02;;;22.10;99.90;;;;;;5016761;28;20274;-76
2022/10/24 09:48:58;;;;;;;4.45;1.17;;;22.20;99.90;;;;;;4994177;28;20187;-77
2022/10/24 09:51:40;;;;;;;3.80;1.30;;;22.20;99.90;;;;;;5017900;28;20167;-76
2022/10/24 09:54:18;;;;;;;3.58;1.20;;;22.30;99.90;;;;;;5016395;28;20186;-77
2022/10/24 09:56:50;;;;;;;3.00;1.10;;;22.30;99.90;;;;;;5020644;28;20177;-75
2022/10/24 09:59:43;;;;;;;3.25;1.10;;;22.30;99.90;;;;;;5006740;28;20174;-76
2022/10/24 10:02:17;;;;;;;4.05;1.20;;;22.30;99.90;;;;;;5035096;28;20222;-76
2022/10/24 10:04:49;;;;;;;4.55;1.35;;;22.10;99.90;;;;;;5020602;28;20263;-76
2022/10/24 10:07:30;;;;;;;3.17;0.85;;;22.00;99.90;;;;;;5025681;28;20162;-75
2022/10/24 10:09:59;;;;;;;4.40;1.13;;;22.00;99.90;;;;;;5027212;28;20197;-75
2022/10/24 10:12:37;;;;;;;5.20;1.05;;;21.90;99.90;;;;;;5039437;28;20194;-78
2022/10/24 10:15:25;;;;;;;3.85;1.15;;;21.90;99.90;;;;;;5041038;28;20193;-76
2022/10/24 10:17:57;;;;;;;4.28;1.10;;;21.80;99.90;;;;;;5042643;28;20181;-76
2022/10/24 10:20:30;;;;;;;7.70;1.60;;;21.70;99.90;;;;;;5038598;28;20242;-78
2022/10/24 10:23:14;;;;;;;3.67;1.20;;;21.50;99.90;;;;;;5018042;28;20170;-77
2022/10/24 10:25:42;;;;;;;4.85;1.17;;;21.40;99.90;;;;;;5018588;28;20190;-77
2022/10/24 10:28:25;;;;;;;7.80;1.33;;;21.40;99.90;;;;;;5015335;28;20179;-76
2022/10/24 10:30:56;;;;;;;4.15;1.27;;;21.30;99.90;;;;;;5018442;28;20206;-76
2022/10/24 10:33:48;;;;;;;5.63;1.48;;;21.30;99.90;;;;;;5027900;28;20197;-76
2022/10/24 10:36:29;;;;;;;3.78;1.02;;;21.30;99.90;;;;;;5033942;28;20175;-75
2022/10/24 10:39:33;;;;;;;6.75;1.73;;;21.30;99.90;;;;;;5034245;28;20194;-75
2022/10/24 10:42:16;;;;;;;4.78;1.23;;;21.40;99.90;;;;;;5005422;28;20202;-76
2022/10/24 10:45:33;;;;;;;4.10;1.10;;;21.40;99.90;;;;;;5014614;28;20558;-77
2022/10/24 10:48:31;;;;;;;6.03;1.45;;;21.40;99.90;;;;;;5000095;28;20179;-77
2022/10/24 10:51:37;;;;;;;4.53;1.27;;;21.40;99.90;;;;;;5013596;28;20167;-75
2022/10/24 10:54:25;;;;;;;5.32;1.33;;;21.50;99.90;;;;;;5015258;28;20178;-75
2022/10/24 10:57:01;;;;;;;5.70;1.38;;;21.60;99.90;;;;;;5031386;28;20190;-77
2022/10/24 10:59:45;;;;;;;4.72;1.60;;;21.60;99.90;;;;;;5021175;28;20174;-75
2022/10/24 11:02:45;;;;;;;9.15;1.55;;;21.70;99.90;;;;;;5039104;28;20174;-74
2022/10/24 11:05:43;;;;;;;3.72;1.05;;;21.70;99.90;;;;;;5031981;28;20195;-76
2022/10/24 11:08:14;;;;;;;3.35;1.17;;;21.80;99.90;;;;;;5031853;28;20205;-74
2022/10/24 11:10:50;;;;;;;4.22;1.48;;;21.80;99.90;;;;;;5034788;28;20231;-75
2022/10/24 11:13:26;;;;;;;3.72;1.35;;;21.90;99.90;;;;;;5015330;28;20228;-76
2022/10/24 11:15:56;;;;;;;3.75;1.02;;;21.90;99.90;;;;;;5016130;28;20194;-76
2022/10/24 11:18:38;;;;;;;4.93;1.20;;;21.90;99.90;;;;;;5001111;28;20198;-75
2022/10/24 11:21:11;;;;;;;3.50;1.13;;;21.90;99.90;;;;;;5015276;28;20167;-76
2022/10/24 11:23:42;;;;;;;3.40;1.00;;;21.80;99.90;;;;;;5013911;28;20494;-77
2022/10/24 11:26:27;;;;;;;1.85;0.80;;;21.80;99.90;;;;;;5029022;28;20155;-76
2022/10/24 11:29:18;;;;;;;3.30;1.15;;;21.70;99.90;;;;;;5024255;28;20186;-76
2022/10/24 11:31:53;;;;;;;5.32;1.30;;;21.60;99.90;;;;;;5017221;28;20229;-76
2022/10/24 11:34:31;;;;;;;4.30;1.08;;;21.60;99.90;;;;;;5013959;28;20202;-75
2022/10/24 11:37:06;;;;;;;3.25;1.15;;;21.50;99.90;;;;;;5023991;28;20171;-76
2022/10/24 11:39:31;;;;;;;3.75;1.00;;;21.40;99.90;;;;;;5023212;28;20170;-75
2022/10/24 11:42:05;;;;;;;3.22;0.95;;;21.40;99.90;;;;;;5023058;28;20170;-75
2022/10/24 11:44:59;;;;;;;2.50;1.05;;;21.30;99.90;;;;;;5018524;28;20179;-76
2022/10/24 11:47:26;;;;;;;4.85;1.50;;;21.30;99.90;;;;;;5026831;28;20186;-76
2022/10/24 11:50:05;;;;;;;4.18;1.27;;;21.30;99.90;;;;;;5029648;28;20194;-76
2022/10/24 11:52:38;;;;;;;4.20;1.42;;;21.20;99.90;;;;;;5025186;28;20189;-76
2022/10/24 11:55:14;;;;;;;3.38;0.90;;;21.30;99.90;;;;;;5030204;28;20241;-75
2022/10/24 11:57:43;;;;;;;5.50;1.45;;;21.30;99.90;;;;;;5030338;28;20253;-76
2022/10/24 12:00:24;;;;;;;4.40;1.02;;;21.40;99.90;;;;;;5021804;28;20186;-76
2022/10/24 12:02:53;;;;;;;5.22;1.05;;;21.40;99.90;;;;;;5000072;28;20190;-77
2022/10/24 12:05:36;;;;;;;7.82;1.27;;;21.50;99.90;;;;;;5009524;28;20179;-76
2022/10/24 12:08:43;;;;;;;5.18;1.15;;;21.60;99.90;;;;;;5011158;28;20212;-77
2022/10/24 12:14:25;;;;;;;2.42;0.98;;;21.90;99.90;;;;;;5004495;28;20217;-76
2022/10/24 12:17:27;;;;;;;2.38;0.90;;;21.90;99.90;;;;;;5032485;28;20175;-77
2022/10/24 12:19:53;;;;;;;5.05;1.33;;;21.90;99.90;;;;;;5018641;28;20232;-76
2022/10/24 12:22:34;;;;;;;3.03;1.20;;;21.90;99.90;;;;;;5018642;28;20179;-77
2022/10/24 12:25:04;;;;;;;2.97;0.95;;;21.80;99.90;;;;;;5035769;28;20167;-77
2022/10/24 12:27:38;;;;;;;3.80;1.27;;;21.70;99.90;;;;;;5026901;28;20181;-78
2022/10/24 12:30:07;;;;;;;2.70;1.30;;;21.60;99.90;;;;;;5036048;28;20232;-75
2022/10/24 12:32:44;;;;;;;2.60;1.00;;;21.50;99.90;;;;;;5043391;28;20197;-75
2022/10/24 12:35:32;;;;;;;2.72;1.15;;;21.40;99.90;;;;;;5016118;28;20281;-75
2022/10/24 12:38:13;;;;;;;4.18;1.15;;;21.40;99.90;;;;;;4997483;28;20171;-76
2022/10/24 12:40:45;;;;;;;4.05;0.95;;;21.30;99.90;;;;;;4996913;28;20178;-77
2022/10/24 12:43:47;;;;;;;2.97;1.00;;;21.20;99.90;;;;;;5014525;28;20220;-74
2022/10/24 12:48:59;;;;;;;5.03;1.35;;;21.10;99.90;;;;;;5003805;28;20254;-78
2022/10/24 12:51:30;;;;;;;5.38;1.17;;;21.10;99.90;;;;;;5008924;28;20266;-76
2022/10/24 12:54:10;;;;;;;6.75;1.38;;;21.10;99.90;;;;;;5015490;28;20207;-75
2022/10/24 12:56:59;;;;;;;7.60;1.00;;;21.10;99.90;;;;;;5031963;28;20198;-76
2022/10/24 12:59:29;;;;;;;3.33;1.10;;;21.10;99.90;;;;;;5016325;28;20289;-77
2022/10/24 13:02:11;;;;;;;3.92;1.10;;;21.00;99.90;;;;;;5031712;28;20202;-77
2022/10/24 13:04:53;;;;;;;6.70;1.45;;;21.00;99.90;;;;;;5023430;28;20246;-78
2022/10/24 13:07:40;;;;;;;2.83;1.20;;;21.00;99.90;;;;;;5019384;28;20236;-76
2022/10/24 13:10:30;;;;;;;2.97;1.13;;;21.00;99.90;;;;;;5032841;28;20281;-76
2022/10/24 13:13:33;;;;;;;3.40;0.98;;;20.90;99.90;;;;;;5015742;28;20195;-78
2022/10/24 13:16:31;;;;;;;4.22;1.00;;;20.90;99.90;;;;;;5015137;28;20206;-78
2022/10/24 13:19:16;;;;;;;3.50;1.38;;;20.90;99.90;;;;;;5027117;28;20273;-78
2022/10/24 13:21:42;;;;;;;3.60;1.17;;;20.90;99.90;;;;;;5008696;28;20265;-75